createdAt,value
2022-08-26T00:00:57.199Z,99.90
2022-08-26T00:03:26.661Z,99.90
2022-08-26T00:05:56.343Z,99.90
2022-08-26T00:08:27.211Z,99.90
2022-08-26T00:10:55.922Z,99.90
2022-08-26T00:13:28.646Z,99.90
2022-08-26T00:15:59.775Z,99.90
2022-08-26T00:18:28.833Z,99.90
2022-08-26T00:21:06.123Z,99.90
2022-08-26T00:23:35.338Z,99.90
2022-08-26T00:26:04.765Z,99.90
2022-08-26T00:28:34.506Z,99.90
2022-08-26T00:31:04.896Z,99.90
2022-08-26T00:33:35.629Z,99.90
2022-08-26T00:36:05.346Z,99.90
2022-08-26T00:38:34.061Z,99.90
2022-08-26T00:41:02.829Z,99.90
2022-08-26T00:43:46.322Z,99.90
2022-08-26T00:46:21.911Z,99.90
2022-08-26T00:48:55.399Z,99.90
2022-08-26T00:51:29.777Z,99.90
2022-08-26T00:54:06.668Z,99.90
2022-08-26T00:56:47.881Z,99.90
2022-08-26T00:59:19.242Z,99.90
2022-08-26T01:01:49.509Z,99.90
2022-08-26T01:04:21.208Z,99.90
2022-08-26T01:06:52.567Z,99.90
2022-08-26T01:09:23.399Z,99.90
2022-08-26T01:11:55.867Z,99.90
2022-08-26T01:14:27.402Z,99.90
2022-08-26T01:16:57.591Z,99.90
2022-08-26T01:19:33.217Z,99.90
2022-08-26T01:22:07.945Z,99.90
2022-08-26T01:24:39.403Z,99.90
2022-08-26T01:27:12.132Z,99.90
2022-08-26T01:29:44.550Z,99.90
2022-08-26T01:32:19.748Z,99.90
2022-08-26T01:34:49.803Z,99.90
2022-08-26T01:37:24.106Z,99.90
2022-08-26T01:39:57.309Z,99.90
2022-08-26T01:42:27.527Z,99.90
2022-08-26T01:45:00.688Z,99.90
2022-08-26T01:47:32.795Z,99.90
2022-08-26T01:50:04.486Z,99.90
2022-08-26T01:52:37.274Z,99.90
2022-08-26T01:55:09.325Z,99.90
2022-08-26T01:57:38.431Z,99.90
2022-08-26T02:00:09.741Z,99.90
2022-08-26T02:02:39.230Z,99.90
2022-08-26T02:05:11.208Z,99.90
2022-08-26T02:07:40.974Z,99.90
2022-08-26T02:10:12.861Z,99.90
2022-08-26T02:12:42.684Z,99.90
2022-08-26T02:18:56.381Z,99.90
2022-08-26T02:21:25.853Z,99.90
2022-08-26T02:23:56.406Z,99.90
2022-08-26T02:26:27.283Z,99.90
2022-08-26T02:29:01.827Z,99.90
2022-08-26T02:31:31.053Z,99.90
2022-08-26T02:34:10.800Z,99.90
2022-08-26T02:36:39.827Z,99.90
2022-08-26T02:39:09.066Z,99.90
2022-08-26T02:41:44.990Z,99.90
2022-08-26T02:44:14.032Z,99.90
2022-08-26T02:46:47.054Z,99.90
2022-08-26T02:49:16.990Z,99.90
2022-08-26T02:51:45.925Z,99.90
2022-08-26T02:54:15.528Z,99.90
2022-08-26T02:56:46.269Z,99.90
2022-08-26T02:59:15.580Z,99.90
2022-08-26T03:01:45.443Z,99.90
2022-08-26T03:04:15.189Z,99.90
2022-08-26T03:06:47.061Z,99.90
2022-08-26T03:09:21.957Z,99.90
2022-08-26T03:11:55.657Z,99.90
2022-08-26T03:14:25.242Z,99.90
2022-08-26T03:16:54.953Z,99.90
2022-08-26T03:19:26.887Z,99.90
2022-08-26T03:21:57.888Z,99.90
2022-08-26T03:24:27.678Z,99.90
2022-08-26T03:26:57.949Z,99.90
2022-08-26T03:29:44.226Z,99.90
2022-08-26T03:32:18.398Z,99.90
2022-08-26T03:34:47.698Z,99.90
2022-08-26T03:37:16.526Z,99.90
2022-08-26T03:39:46.026Z,99.90
2022-08-26T03:42:16.310Z,99.90
2022-08-26T03:44:45.122Z,99.90
2022-08-26T03:47:13.720Z,99.90
2022-08-26T03:49:42.378Z,99.90
2022-08-26T03:52:11.022Z,99.90
2022-08-26T03:54:39.983Z,99.90
2022-08-26T03:57:08.864Z,99.90
2022-08-26T03:59:38.920Z,99.90
2022-08-26T04:02:11.645Z,99.90
2022-08-26T04:04:40.623Z,99.90
2022-08-26T04:07:09.382Z,99.90
2022-08-26T04:09:38.039Z,99.90
2022-08-26T04:12:10.036Z,99.90
2022-08-26T04:14:40.529Z,99.90
2022-08-26T04:17:09.198Z,99.90
2022-08-26T04:19:37.910Z,99.90
2022-08-26T04:22:06.804Z,99.90
2022-08-26T04:24:36.445Z,99.90
2022-08-26T04:27:05.163Z,99.90
2022-08-26T04:29:36.790Z,99.90
2022-08-26T04:32:09.879Z,99.90
2022-08-26T04:34:39.123Z,99.90
2022-08-26T04:37:09.248Z,99.90
2022-08-26T04:39:38.611Z,99.90
2022-08-26T04:42:07.870Z,99.90
2022-08-26T04:44:39.048Z,99.90
2022-08-26T04:47:09.902Z,99.90
2022-08-26T04:49:40.081Z,99.90
2022-08-26T04:52:10.100Z,99.90
2022-08-26T04:54:39.219Z,99.90
2022-08-26T04:57:10.616Z,99.90
2022-08-26T04:59:39.652Z,99.90
2022-08-26T05:02:09.697Z,99.90
2022-08-26T05:04:38.440Z,99.90
2022-08-26T05:07:08.213Z,99.90
2022-08-26T05:09:38.504Z,99.90
2022-08-26T05:12:07.674Z,99.90
2022-08-26T05:14:37.939Z,99.90
2022-08-26T05:17:06.755Z,99.90
2022-08-26T05:19:37.355Z,99.90
2022-08-26T05:22:13.246Z,99.90
2022-08-26T05:24:42.072Z,99.90
2022-08-26T05:27:11.793Z,99.90
2022-08-26T05:29:41.717Z,99.90
2022-08-26T05:32:11.253Z,99.90
2022-08-26T05:34:42.947Z,99.90
2022-08-26T05:37:13.632Z,99.90
2022-08-26T05:39:43.568Z,99.90
2022-08-26T05:42:20.372Z,99.90
2022-08-26T05:44:55.930Z,99.90
2022-08-26T05:47:25.058Z,99.90
2022-08-26T05:49:56.253Z,99.90
2022-08-26T05:52:26.101Z,99.90
2022-08-26T05:54:55.459Z,99.90
2022-08-26T05:57:24.073Z,99.90
2022-08-26T05:59:53.277Z,99.90
2022-08-26T06:02:22.019Z,99.90
2022-08-26T06:04:51.386Z,99.90
2022-08-26T06:07:42.492Z,99.90
2022-08-26T06:10:32.370Z,99.90
2022-08-26T06:13:09.278Z,99.90
2022-08-26T06:15:46.554Z,99.90
2022-08-26T06:18:18.274Z,99.90
2022-08-26T06:20:49.523Z,99.90
2022-08-26T06:23:47.578Z,99.90
2022-08-26T06:26:17.588Z,99.90
2022-08-26T06:28:46.486Z,99.90
2022-08-26T06:31:16.158Z,99.90
2022-08-26T06:33:45.400Z,99.90
2022-08-26T06:36:19.524Z,99.90
2022-08-26T06:38:51.095Z,99.90
2022-08-26T06:41:21.266Z,99.90
2022-08-26T06:43:50.196Z,99.90
2022-08-26T06:46:20.645Z,99.90
2022-08-26T06:48:50.458Z,99.90
2022-08-26T06:51:22.356Z,99.90
2022-08-26T06:53:55.460Z,99.90
2022-08-26T06:56:26.730Z,99.90
2022-08-26T06:58:55.915Z,99.90
2022-08-26T07:01:26.703Z,99.90
2022-08-26T07:03:57.720Z,99.90
2022-08-26T07:06:27.666Z,99.90
2022-08-26T07:09:05.061Z,99.90
2022-08-26T07:11:35.103Z,99.90
2022-08-26T07:14:04.559Z,99.90
2022-08-26T07:16:33.212Z,99.90
2022-08-26T07:19:03.490Z,99.90
2022-08-26T07:21:41.743Z,99.90
2022-08-26T07:24:12.355Z,99.90
2022-08-26T07:26:42.948Z,99.90
2022-08-26T07:29:12.898Z,99.90
2022-08-26T07:31:42.979Z,99.90
2022-08-26T07:34:13.928Z,99.90
2022-08-26T07:36:42.766Z,99.90
2022-08-26T07:39:12.757Z,99.90
2022-08-26T07:41:41.541Z,99.90
2022-08-26T07:44:11.480Z,99.90
2022-08-26T07:46:40.342Z,99.90
2022-08-26T07:49:09.237Z,99.90
2022-08-26T07:51:38.555Z,99.90
2022-08-26T07:54:07.619Z,99.90
2022-08-26T07:56:38.338Z,99.90
2022-08-26T07:59:13.835Z,99.90
2022-08-26T08:01:45.183Z,99.90
2022-08-26T08:04:14.487Z,99.90
2022-08-26T08:06:44.005Z,99.90
2022-08-26T08:09:13.167Z,99.90
2022-08-26T08:11:43.527Z,99.90
2022-08-26T08:14:13.597Z,99.90
2022-08-26T08:16:45.993Z,99.90
2022-08-26T08:19:16.202Z,99.90
2022-08-26T08:21:45.011Z,99.90
2022-08-26T08:24:13.757Z,99.90
2022-08-26T08:26:44.395Z,99.90
2022-08-26T08:29:13.318Z,99.90
2022-08-26T08:31:58.449Z,99.90
2022-08-26T08:34:28.704Z,99.90
2022-08-26T08:36:58.042Z,99.90
2022-08-26T08:39:27.209Z,99.90
2022-08-26T08:42:23.528Z,99.90
2022-08-26T08:44:57.555Z,99.90
2022-08-26T08:47:34.472Z,99.90
2022-08-26T08:50:13.209Z,99.90
2022-08-26T08:52:46.188Z,99.90
2022-08-26T08:55:18.292Z,99.90
2022-08-26T08:58:02.201Z,99.90
2022-08-26T09:00:40.083Z,99.90
2022-08-26T09:03:19.015Z,99.90
2022-08-26T09:05:51.680Z,99.90
2022-08-26T09:08:27.631Z,99.90
2022-08-26T09:10:59.806Z,99.90
2022-08-26T09:13:31.803Z,98.10
2022-08-26T09:16:09.896Z,97.70
2022-08-26T09:18:55.499Z,97.80
2022-08-26T09:21:26.286Z,96.80
2022-08-26T09:23:57.330Z,97.90
2022-08-26T09:26:30.765Z,97.80
2022-08-26T09:29:03.051Z,97.60
2022-08-26T09:31:35.484Z,97.60
2022-08-26T09:34:17.481Z,97.30
2022-08-26T09:36:48.928Z,96.60
2022-08-26T09:39:39.341Z,97.40
2022-08-26T09:42:12.015Z,96.90
2022-08-26T09:45:00.357Z,95.80
2022-08-26T09:47:35.143Z,95.70
2022-08-26T09:50:12.344Z,95.70
2022-08-26T09:52:42.898Z,95.30
2022-08-26T09:55:15.607Z,95.80
2022-08-26T09:57:51.102Z,94.50
2022-08-26T10:00:31.139Z,93.60
2022-08-26T10:03:01.948Z,92.40
2022-08-26T10:05:35.989Z,92.30
2022-08-26T10:08:23.246Z,92.20
2022-08-26T10:10:53.122Z,91.40
2022-08-26T10:13:29.540Z,90.00
2022-08-26T10:16:10.643Z,90.50
2022-08-26T10:18:43.896Z,88.60
2022-08-26T10:21:18.046Z,89.00
2022-08-26T10:23:50.600Z,88.60
2022-08-26T10:26:26.779Z,88.50
2022-08-26T10:29:06.673Z,88.50
2022-08-26T10:31:42.677Z,88.30
2022-08-26T10:34:12.587Z,85.60
2022-08-26T10:37:14.866Z,86.60
2022-08-26T10:39:46.822Z,86.50
2022-08-26T10:42:23.654Z,85.10
2022-08-26T10:44:58.468Z,85.70
2022-08-26T10:47:36.325Z,86.50
2022-08-26T10:50:07.074Z,86.40
2022-08-26T10:52:51.056Z,85.40
2022-08-26T10:55:27.753Z,85.70
2022-08-26T10:58:04.720Z,86.70
2022-08-26T11:01:10.445Z,82.80
2022-08-26T11:03:47.074Z,83.90
2022-08-26T11:06:29.887Z,84.70
2022-08-26T11:09:00.008Z,82.20
2022-08-26T11:11:50.506Z,85.00
2022-08-26T11:14:53.659Z,84.50
2022-08-26T11:18:00.449Z,86.00
2022-08-26T11:20:41.869Z,84.70
2022-08-26T11:23:40.371Z,83.50
2022-08-26T11:26:27.478Z,83.60
2022-08-26T11:29:12.132Z,80.90
2022-08-26T11:31:57.626Z,81.50
2022-08-26T11:34:56.380Z,83.40
2022-08-26T11:37:33.037Z,84.80
2022-08-26T11:40:04.366Z,82.00
2022-08-26T11:42:39.759Z,85.00
2022-08-26T11:45:19.545Z,79.70
2022-08-26T11:47:49.446Z,81.40
2022-08-26T11:50:23.601Z,83.00
2022-08-26T11:52:56.273Z,81.50
2022-08-26T11:55:26.217Z,81.50
2022-08-26T11:58:00.304Z,80.90
2022-08-26T12:00:33.376Z,79.40
2022-08-26T12:03:07.852Z,79.70
2022-08-26T12:05:43.622Z,79.00
2022-08-26T12:08:18.040Z,78.40
2022-08-26T12:10:48.527Z,81.20
2022-08-26T12:13:23.468Z,78.80
2022-08-26T12:16:00.074Z,77.00
2022-08-26T12:18:32.788Z,76.60
2022-08-26T12:21:12.962Z,76.60
2022-08-26T12:23:46.742Z,78.00
2022-08-26T12:26:24.047Z,77.90
2022-08-26T12:28:57.439Z,75.20
2022-08-26T12:31:31.488Z,78.70
2022-08-26T12:34:02.612Z,74.10
2022-08-26T12:36:34.615Z,74.00
2022-08-26T12:39:16.885Z,73.70
2022-08-26T12:41:50.255Z,67.10
2022-08-26T12:44:53.965Z,68.60
2022-08-26T12:47:40.079Z,68.30
2022-08-26T12:50:19.559Z,67.40
2022-08-26T12:52:59.077Z,66.30
2022-08-26T12:55:39.085Z,66.80
2022-08-26T12:58:30.290Z,71.30
2022-08-26T13:01:20.509Z,68.00
2022-08-26T13:03:49.777Z,66.40
2022-08-26T13:06:27.663Z,66.60
2022-08-26T13:08:58.454Z,66.30
2022-08-26T13:11:32.544Z,66.60
2022-08-26T13:14:03.225Z,66.60
2022-08-26T13:16:36.989Z,65.80
2022-08-26T13:19:25.645Z,65.60
2022-08-26T13:21:56.951Z,67.00
2022-08-26T13:24:30.141Z,64.40
2022-08-26T13:27:00.876Z,65.70
2022-08-26T13:29:29.662Z,64.80
2022-08-26T13:32:00.413Z,64.40
2022-08-26T13:34:29.795Z,63.40
2022-08-26T13:36:58.714Z,63.10
2022-08-26T13:39:28.481Z,62.80
2022-08-26T13:41:57.310Z,66.40
2022-08-26T13:44:27.663Z,62.70
2022-08-26T13:46:56.729Z,60.00
2022-08-26T13:49:25.617Z,60.90
2022-08-26T13:51:54.423Z,62.20
2022-08-26T13:54:23.120Z,63.10
2022-08-26T13:56:52.115Z,61.40
2022-08-26T13:59:20.882Z,66.00
2022-08-26T14:01:51.129Z,66.00
2022-08-26T14:04:23.328Z,65.60
2022-08-26T14:06:56.242Z,67.60
2022-08-26T14:09:24.957Z,66.60
2022-08-26T14:11:54.224Z,65.30
2022-08-26T14:14:23.718Z,67.60
2022-08-26T14:16:59.375Z,66.40
2022-08-26T14:19:30.245Z,66.20
2022-08-26T14:22:01.048Z,69.80
2022-08-26T14:24:30.613Z,69.00
2022-08-26T14:26:59.698Z,67.90
2022-08-26T14:29:28.576Z,68.40
2022-08-26T14:32:01.580Z,66.70
2022-08-26T14:34:31.614Z,70.70
2022-08-26T14:37:07.299Z,66.60
2022-08-26T14:39:37.441Z,65.60
2022-08-26T14:42:06.732Z,67.50
2022-08-26T14:44:35.742Z,68.40
2022-08-26T14:47:08.083Z,68.00
2022-08-26T14:49:37.145Z,67.80
2022-08-26T14:52:06.299Z,68.90
2022-08-26T14:54:33.952Z,69.30
2022-08-26T14:57:06.341Z,68.50
2022-08-26T14:59:37.219Z,65.60
2022-08-26T15:02:08.991Z,65.80
2022-08-26T15:04:43.276Z,64.60
2022-08-26T15:07:12.661Z,67.40
2022-08-26T15:09:41.761Z,66.10
2022-08-26T15:12:10.736Z,64.50
2022-08-26T15:14:39.965Z,63.80
2022-08-26T15:17:10.435Z,66.00
2022-08-26T15:19:39.830Z,64.20
2022-08-26T15:22:08.589Z,63.60
2022-08-26T15:24:37.352Z,63.30
2022-08-26T15:27:06.113Z,63.30
2022-08-26T15:29:36.207Z,64.00
2022-08-26T15:32:05.934Z,64.30
2022-08-26T15:34:36.116Z,64.40
2022-08-26T15:37:05.699Z,64.30
2022-08-26T15:39:34.459Z,65.00
2022-08-26T15:42:03.453Z,66.80
2022-08-26T15:44:34.264Z,67.80
2022-08-26T15:47:03.145Z,67.60
2022-08-26T15:49:32.359Z,67.40
2022-08-26T15:52:05.323Z,66.90
2022-08-26T15:54:34.646Z,67.50
2022-08-26T15:57:10.774Z,67.90
2022-08-26T15:59:41.767Z,68.20
2022-08-26T16:02:10.862Z,70.90
2022-08-26T16:04:39.609Z,70.20
2022-08-26T16:07:10.419Z,70.80
2022-08-26T16:09:39.270Z,71.10
2022-08-26T16:12:08.182Z,69.60
2022-08-26T16:14:37.182Z,70.40
2022-08-26T16:17:05.980Z,71.30
2022-08-26T16:19:34.677Z,70.60
2022-08-26T16:22:03.355Z,71.40
2022-08-26T16:24:33.675Z,70.90
2022-08-26T16:27:02.658Z,71.80
2022-08-26T16:29:32.896Z,71.80
2022-08-26T16:32:08.747Z,72.40
2022-08-26T16:34:37.834Z,73.10
2022-08-26T16:37:16.062Z,72.50
2022-08-26T16:39:46.196Z,74.00
2022-08-26T16:42:15.621Z,73.50
2022-08-26T16:44:45.767Z,72.80
2022-08-26T16:47:16.170Z,74.10
2022-08-26T16:49:45.009Z,75.40
2022-08-26T16:52:14.235Z,75.20
2022-08-26T16:54:43.463Z,75.60
2022-08-26T16:57:16.511Z,75.60
2022-08-26T16:59:45.306Z,75.70
2022-08-26T17:02:14.292Z,76.00
2022-08-26T17:04:46.152Z,75.90
2022-08-26T17:07:18.994Z,77.60
2022-08-26T17:09:47.861Z,76.90
2022-08-26T17:12:18.006Z,78.10
2022-08-26T17:14:46.862Z,78.30
2022-08-26T17:17:15.760Z,78.80
2022-08-26T17:19:47.274Z,79.70
2022-08-26T17:22:16.787Z,80.20
2022-08-26T17:24:45.579Z,80.30
2022-08-26T17:27:14.876Z,81.10
2022-08-26T17:29:44.982Z,81.30
2022-08-26T17:32:13.743Z,81.60
2022-08-26T17:34:42.593Z,82.00
2022-08-26T17:37:14.134Z,82.60
2022-08-26T17:39:53.398Z,83.00
2022-08-26T17:42:22.272Z,84.00
2022-08-26T17:45:02.076Z,84.80
2022-08-26T17:47:30.850Z,85.20
2022-08-26T17:50:01.734Z,85.60
2022-08-26T17:52:31.147Z,86.00
2022-08-26T17:55:01.515Z,86.70
2022-08-26T17:57:31.290Z,87.10
2022-08-26T18:00:01.595Z,87.70
2022-08-26T18:05:04.461Z,88.60
2022-08-26T18:07:34.932Z,89.60
2022-08-26T18:10:16.250Z,89.90
2022-08-26T18:12:45.417Z,90.50
2022-08-26T18:15:17.769Z,90.80
2022-08-26T18:17:46.984Z,91.30
2022-08-26T18:20:18.335Z,91.60
2022-08-26T18:22:48.647Z,91.70
2022-08-26T18:25:18.458Z,91.90
2022-08-26T18:27:47.350Z,92.00
2022-08-26T18:30:21.601Z,92.40
2022-08-26T18:32:52.335Z,92.40
2022-08-26T18:35:21.668Z,92.80
2022-08-26T18:37:50.349Z,93.10
2022-08-26T18:40:19.055Z,93.40
2022-08-26T18:42:49.341Z,93.80
2022-08-26T18:45:25.605Z,93.90
2022-08-26T18:47:55.564Z,93.90
2022-08-26T18:50:24.575Z,94.20
2022-08-26T18:52:53.312Z,94.30
2022-08-26T18:55:22.506Z,94.50
2022-08-26T18:57:51.473Z,94.70
2022-08-26T19:00:20.449Z,94.80
2022-08-26T19:02:51.830Z,95.00
2022-08-26T19:05:21.301Z,95.10
2022-08-26T19:07:49.990Z,95.40
2022-08-26T19:10:18.780Z,95.70
2022-08-26T19:12:47.506Z,96.10
2022-08-26T19:15:21.258Z,96.50
2022-08-26T19:17:51.330Z,96.40
2022-08-26T19:20:20.231Z,96.80
2022-08-26T19:22:49.038Z,96.90
2022-08-26T19:25:18.680Z,97.10
2022-08-26T19:27:48.114Z,97.50
2022-08-26T19:30:17.599Z,97.60
2022-08-26T19:32:48.601Z,97.70
2022-08-26T19:35:18.795Z,98.00
2022-08-26T19:37:48.221Z,98.10
2022-08-26T19:40:17.316Z,98.40
2022-08-26T19:42:47.606Z,98.20
2022-08-26T19:45:24.669Z,98.50
2022-08-26T19:47:54.373Z,98.80
2022-08-26T19:50:26.483Z,98.70
2022-08-26T19:52:55.357Z,98.80
2022-08-26T19:55:26.334Z,99.10
2022-08-26T19:57:55.423Z,99.10
2022-08-26T20:00:29.471Z,99.30
2022-08-26T20:02:58.272Z,99.10
2022-08-26T20:05:29.307Z,99.50
2022-08-26T20:07:58.179Z,99.40
2022-08-26T20:10:27.093Z,99.50
2022-08-26T20:12:58.755Z,99.50
2022-08-26T20:15:28.428Z,99.60
2022-08-26T20:17:58.029Z,99.70
2022-08-26T20:20:45.591Z,99.90
2022-08-26T20:23:17.084Z,99.90
2022-08-26T20:25:46.890Z,99.90
2022-08-26T20:28:19.115Z,99.90
2022-08-26T20:30:48.068Z,99.90
2022-08-26T20:33:17.423Z,99.90
2022-08-26T20:35:50.691Z,99.90
2022-08-26T20:38:21.505Z,99.90
2022-08-26T20:40:51.999Z,99.90
2022-08-26T20:43:24.987Z,99.90
2022-08-26T20:45:54.571Z,99.90
2022-08-26T20:48:23.801Z,99.90
2022-08-26T20:50:57.686Z,99.90
2022-08-26T20:53:27.375Z,99.90
2022-08-26T20:56:00.723Z,99.90
2022-08-26T20:58:30.018Z,99.90
2022-08-26T21:00:59.877Z,99.90
2022-08-26T21:03:31.261Z,99.90
2022-08-26T21:06:04.934Z,99.90
2022-08-26T21:08:33.621Z,99.90
2022-08-26T21:11:02.519Z,99.90
2022-08-26T21:13:48.334Z,99.90
2022-08-26T21:16:22.994Z,99.90
2022-08-26T21:18:51.795Z,99.90
2022-08-26T21:21:24.934Z,99.90
2022-08-26T21:23:55.501Z,99.90
2022-08-26T21:26:26.124Z,99.90
2022-08-26T21:28:55.346Z,99.90
2022-08-26T21:31:26.306Z,99.90
2022-08-26T21:33:55.391Z,99.90
2022-08-26T21:36:25.628Z,99.90
2022-08-26T21:38:56.459Z,99.90
2022-08-26T21:41:26.865Z,99.90
2022-08-26T21:43:59.473Z,99.90
2022-08-26T21:46:31.388Z,99.90
2022-08-26T21:49:02.400Z,99.90
2022-08-26T21:51:35.710Z,99.90
2022-08-26T21:54:10.487Z,99.90
2022-08-26T21:56:44.863Z,99.90
2022-08-26T21:59:14.921Z,99.90
2022-08-26T22:01:43.781Z,99.90
2022-08-26T22:04:12.501Z,99.90
2022-08-26T22:06:44.946Z,99.90
2022-08-26T22:09:15.564Z,99.90
2022-08-26T22:11:45.949Z,99.90
2022-08-26T22:14:15.228Z,99.90
2022-08-26T22:16:48.978Z,99.90
2022-08-26T22:19:20.480Z,99.90
2022-08-26T22:21:55.535Z,99.90
2022-08-26T22:24:27.007Z,99.90
2022-08-26T22:26:57.185Z,99.90
2022-08-26T22:29:27.365Z,99.90
2022-08-26T22:31:57.565Z,99.90
2022-08-26T22:34:26.451Z,99.90
2022-08-26T22:36:57.139Z,99.90
2022-08-26T22:39:28.100Z,99.90
2022-08-26T22:41:57.454Z,99.90
2022-08-26T22:44:26.864Z,99.90
2022-08-26T22:46:55.911Z,99.90
2022-08-26T22:49:25.225Z,99.90
2022-08-26T22:51:54.149Z,99.90
2022-08-26T22:54:24.330Z,99.90
2022-08-26T22:56:53.691Z,99.90
2022-08-26T22:59:22.406Z,99.90
2022-08-26T23:01:51.897Z,99.90
2022-08-26T23:04:21.035Z,99.90
2022-08-26T23:06:49.883Z,99.90
2022-08-26T23:09:20.082Z,99.90
2022-08-26T23:11:51.957Z,99.90
2022-08-26T23:14:21.241Z,99.90
2022-08-26T23:16:50.231Z,99.90
2022-08-26T23:19:21.137Z,99.90
2022-08-26T23:21:50.914Z,99.90
2022-08-26T23:24:19.804Z,99.90
2022-08-26T23:26:48.563Z,99.90
2022-08-26T23:29:18.760Z,99.90
2022-08-26T23:31:47.594Z,99.90
2022-08-26T23:34:34.283Z,99.90
2022-08-26T23:37:04.870Z,99.90
2022-08-26T23:39:36.519Z,99.90
2022-08-26T23:42:06.808Z,99.90
2022-08-26T23:44:37.043Z,99.90
2022-08-26T23:47:06.650Z,99.90
2022-08-26T23:49:36.161Z,99.90
2022-08-26T23:52:24.061Z,99.90
2022-08-26T23:54:53.141Z,99.90
2022-08-26T23:57:24.218Z,99.90
2022-08-26T23:59:54.920Z,99.90
